Latest Coastal Weather Observations for Townsville

IDQ60701

Issued at 5:42 pm EST Thursday 20 February 2020 (issued every 10 minutes, with the page automatically refreshed every 10 minutes)

About coastal observations | Map of coastal stations | Coastal observations for QLD | Marine services | Other Formats
Station Details ID: 032040 Name: TOWNSVILLE AERO Lat: -19.25 Lon: 146.77 Height: 4.34 m
Data from the previous 72 hours. | See also: Recent months at Townsville
Date/Time
EST
Wind Sea
Height
m
Swell Vis
km
Cloud Weather Temp
°C
Press
hPa
Rain since
9am
mm
Dir  Spd
kts
Gust
kts
Height
m
Period
s
Dir
20/05:30pm ENE 11 14 - - - - 10 Mostly clear - 31.8 1005.2 0.0
20/05:00pm ENE 11 14 - - - - 10 Mostly clear - 31.8 1005.1 0.0
20/04:30pm NE 8 13 - - - - 10 Mostly clear - 33.6 1004.5 0.0
20/04:00pm NNE 10 15 - - - - 10 - - 33.4 1004.3 0.0
20/03:30pm NE 9 15 - - - - 10 Mostly clear - 33.4 1004.7 0.0
20/03:00pm NE 11 17 - - - - 10 Mostly clear - 34.0 1004.9 0.0
20/02:30pm NE 9 14 - - - - 10 Mostly clear - 33.6 1005.2 0.0
20/02:00pm ENE 10 14 - - - - 10 Mostly clear - 34.0 1005.2 0.0
20/01:30pm NE 10 15 - - - - 10 Mostly clear - 34.4 1005.8 0.0
20/01:00pm NNE 10 15 - - - - 10 Mostly clear - 33.6 1006.2 0.0
20/12:30pm NNE 11 14 - - - - 10 Mostly clear - 33.5 1006.6 0.0
20/12:00pm NE 12 17 - - - - 10 Mostly clear - 33.3 1007.0 0.0
20/11:30am NE 10 15 - - - - 10 Partly cloudy - 34.4 1007.1 0.0
20/11:00am NNE 7 11 - - - - 10 Partly cloudy - 34.0 1007.1 0.0
20/10:30am WSW 4 6 - - - - 10 Mostly clear - 32.9 1007.3 0.0
20/10:00am N 5 7 - - - - 10 Mostly clear - 32.3 1007.5 0.0
20/09:30am NW 5 8 - - - - 10 Mostly clear - 31.2 1007.6 0.0
20/09:00am NW 1 5 - - - - 10 Mostly clear - 30.8 1007.6 0.0
20/08:30am WNW 3 6 - - - - 10 Partly cloudy - 30.6 1007.4 0.0
20/08:00am W 5 7 - - - - 10 Mostly clear - 30.3 1007.3 0.0
20/07:30am WSW 5 7 - - - - 10 Partly cloudy - 29.8 1007.3 0.0
20/07:00am WSW 5 6 - - - - 10 Mostly clear - 28.3 1006.9 0.0
20/06:30am WNW 3 4 - - - - 10 Mostly clear - 27.6 1006.5 0.0
20/06:00am N 3 4 - - - - 10 Mostly clear - 28.1 1006.3 0.0
20/05:30am N 3 4 - - - - 10 - - 28.3 1006.0 0.0
20/05:00am N 3 4 - - - - 10 - - 28.4 1005.8 0.0
20/04:30am NNE 2 3 - - - - 10 Partly cloudy - 28.6 1005.6 0.0
20/04:00am NNE 4 5 - - - - 10 Partly cloudy - 28.3 1005.2 0.0
20/03:30am NNE 6 6 - - - - 10 Partly cloudy - 28.6 1005.1 0.0
20/03:00am NNE 6 6 - - - - 10 - - 28.6 1005.4 0.0
20/02:30am NNE 6 6 - - - - 10 - - 28.8 1005.5 0.0
20/02:00am NE 4 4 - - - - 10 Partly cloudy - 28.6 1005.7 0.0
20/01:30am NNE 5 6 - - - - 10 - - 28.9 1006.2 0.0
20/01:00am NNE 6 6 - - - - 10 - - 29.0 1006.5 0.0
20/12:30am NNE 5 6 - - - - 10 - - 28.9 1006.9 0.0
20/12:00am N 4 5 - - - - 10 Mostly clear - 29.1 1007.4 0.0
 
Date/Time
EST
Wind Sea
Height
m
Swell Vis
km
Cloud Weather Temp
°C
Press
hPa
Rain since
9am
mm
Dir  Spd
kts
Gust
kts
Height
m
Period
s
Dir
19/11:30pm N 4 5 - - - - 10 - - 29.0 1007.5 0.0
19/11:00pm N 5 6 - - - - 10 - - 29.2 1007.3 0.0
19/10:30pm NNE 5 6 - - - - 10 - - 29.2 1007.2 0.0
19/10:00pm N 5 6 - - - - 10 Mostly clear - 29.2 1007.2 0.0
19/09:30pm N 5 6 - - - - 10 Mostly clear - 29.3 1007.0 0.0
19/09:00pm N 4 5 - - - - 10 - - 29.5 1006.9 0.0
19/08:30pm NNE 7 8 - - - - 10 - - 29.7 1006.7 0.0
19/08:00pm N 7 9 - - - - 10 - - 29.8 1006.5 0.0
19/07:30pm N 6 9 - - - - 10 Mostly clear - 29.8 1006.0 0.0
19/07:00pm N 5 8 - - - - 10 Mostly clear - 30.1 1005.2 0.0
19/06:30pm NE 10 13 - - - - 10 Mostly clear - 31.1 1004.4 0.0
19/06:00pm ENE 12 14 - - - - 10 Mostly clear - 31.5 1004.1 0.0
19/05:30pm ENE 12 14 - - - - 10 Mostly clear - 31.9 1003.9 0.0
19/05:00pm ENE 12 15 - - - - 10 Mostly clear - 32.8 1003.7 0.0
19/04:30pm ENE 12 15 - - - - 10 Mostly clear - 32.9 1003.5 0.0
19/04:00pm ENE 13 16 - - - - 10 Mostly clear - 32.9 1003.6 0.0
19/03:30pm ENE 13 16 - - - - 10 Mostly clear - 32.9 1003.8 0.0
19/03:00pm NE 12 16 - - - - 10 Mostly clear - 33.2 1004.1 0.0
19/02:30pm NE 10 16 - - - - 10 Mostly clear - 32.8 1004.5 0.0
19/02:00pm NE 10 16 - - - - 10 Mostly clear - 33.2 1005.0 0.0
19/01:30pm NE 11 15 - - - - 10 Mostly clear - 32.8 1005.4 0.0
19/01:00pm NE 10 14 - - - - 10 Mostly clear - 33.0 1006.0 0.0
19/12:30pm NE 9 14 - - - - 10 Mostly clear - 33.1 1006.6 0.0
19/12:00pm NE 9 12 - - - - 10 Mostly clear - 33.3 1007.0 0.0
19/11:30am NE 10 14 - - - - 10 Mostly clear - 32.8 1007.5 0.0
19/11:00am ENE 7 12 - - - - 10 Mostly clear - 33.3 1007.7 0.0
19/10:30am NE 10 14 - - - - 10 Mostly clear - 32.4 1007.8 0.0
19/10:00am NE 8 11 - - - - 10 Mostly clear - 32.3 1007.9 0.0
19/09:30am E 7 12 - - - - 10 Mostly clear - 32.2 1007.9 0.0
19/09:00am ESE 6 9 - - - - 10 Mostly cloudy - 31.3 1008.1 0.6
19/08:30am SSE 6 9 - - - - 10 Partly cloudy - 30.0 1007.8 0.6
19/08:00am SE 8 10 - - - - 10 Mostly clear - 30.1 1007.6 0.6
19/07:30am SE 4 6 - - - - 10 Mostly clear - 29.5 1007.4 0.6
19/07:00am SE 5 6 - - - - 10 Mostly clear - 28.6 1007.1 0.6
19/06:30am SSE 6 7 - - - - 10 Mostly clear - 27.9 1006.8 0.6
19/06:00am SSE 6 7 - - - - 10 Mostly cloudy Recent precip. 27.6 1006.4 0.6
19/05:30am SSE 6 7 - - - - 10 Partly cloudy - 27.4 1005.9 0.4
19/05:00am SE 5 6 - - - - 10 Partly cloudy - 27.4 1005.7 0.4
19/04:30am SE 5 6 - - - - 10 Partly cloudy - 27.6 1005.7 0.4
19/04:00am SE 5 6 - - - - 10 Partly cloudy - 27.6 1005.6 0.4
19/03:30am SE 6 8 - - - - 10 Partly cloudy - 27.6 1005.7 0.4
19/03:00am E 2 6 - - - - 10 Cloudy Rain 28.0 1005.9 0.0
19/02:30am SE 5 7 - - - - 10 Partly cloudy - 28.5 1006.2 0.0
19/02:00am SE 6 8 - - - - 10 Partly cloudy - 28.3 1006.4 0.0
19/01:30am SE 7 8 - - - - 10 Partly cloudy - 28.4 1006.3 0.0
19/01:00am ESE 6 8 - - - - 10 Partly cloudy - 28.7 1006.5 0.0
19/12:30am SE 7 8 - - - - 10 Partly cloudy - 28.7 1007.0 0.0
19/12:00am SSE 5 7 - - - - 10 Mostly clear - 28.9 1007.2 0.0
 
Date/Time
EST
Wind Sea
Height
m
Swell Vis
km
Cloud Weather Temp
°C
Press
hPa
Rain since
9am
mm
Dir  Spd
kts
Gust
kts
Height
m
Period
s
Dir
18/11:30pm ESE 6 8 - - - - 10 Partly cloudy - 29.0 1007.2 0.0
18/11:00pm E 5 6 - - - - 10 Partly cloudy - 29.1 1007.1 0.0
18/10:30pm ESE 7 8 - - - - 10 Partly cloudy - 29.5 1007.2 0.0
18/10:00pm E 8 10 - - - - 10 Partly cloudy - 29.5 1007.3 0.0
18/09:30pm E 9 10 - - - - 10 Mostly clear - 29.4 1007.1 0.0
18/09:00pm ENE 8 10 - - - - 10 Mostly clear - 29.6 1007.2 0.0
18/08:30pm E 10 14 - - - - 10 Mostly clear - 29.6 1006.9 0.0
18/08:00pm ENE 9 12 - - - - 10 Mostly clear - 29.6 1006.4 0.0
18/07:30pm ENE 9 11 - - - - 10 Mostly clear - 29.6 1006.2 0.0
18/07:00pm ENE 9 11 - - - - 10 Mostly clear - 29.7 1005.8 0.0
18/06:30pm ENE 10 13 - - - - 10 Mostly clear - 29.9 1005.3 0.0
18/06:00pm ENE 10 14 - - - - 10 Mostly clear - 30.6 1005.3 0.0
18/05:30pm ENE 11 14 - - - - 10 Mostly clear - 30.9 1005.2 0.0
18/05:00pm NE 11 15 - - - - 10 Mostly clear - 31.1 1005.1 0.0
18/04:30pm NE 14 17 - - - - 10 Mostly clear - 31.7 1004.9 0.0
18/04:00pm ENE 13 16 - - - - 10 Mostly clear - 32.0 1005.3 0.0
18/03:30pm NE 14 17 - - - - 10 Mostly clear - 32.0 1005.6 0.0
18/03:00pm NE 14 18 - - - - 10 Mostly clear - 32.0 1005.8 0.0
18/02:30pm NE 15 18 - - - - 10 Mostly clear - 32.4 1006.0 0.0
18/02:00pm NE 14 19 - - - - 10 Mostly clear - 32.2 1006.5 0.0
18/01:30pm ENE 11 15 - - - - 10 Mostly clear - 32.7 1006.9 0.0
18/01:00pm NE 14 17 - - - - 10 Mostly clear - 32.5 1007.3 0.0
18/12:30pm ENE 15 18 - - - - 10 Mostly clear - 33.0 1007.7 0.0
18/12:00pm NE 12 17 - - - - 10 Mostly clear - 32.8 1008.1 0.0
18/11:30am ENE 13 16 - - - - 10 Mostly clear - 32.9 1008.5 0.0
18/11:00am ENE 12 16 - - - - 10 Mostly clear - 33.1 1008.6 0.0
18/10:30am E 10 14 - - - - 10 Mostly clear - 33.1 1008.8 0.0
18/10:00am E 10 14 - - - - 10 Partly cloudy - 31.6 1009.2 0.0
18/09:30am ESE 7 10 - - - - 10 Partly cloudy - 31.1 1009.2 0.0
18/09:00am ESE 7 10 - - - - 10 Mostly clear - 31.0 1009.0 0.2
18/08:30am SE 8 10 - - - - 10 Mostly clear - 29.8 1009.0 0.2
18/08:00am SE 7 9 - - - - 10 Mostly clear - 29.3 1008.9 0.2
18/07:30am NNE 2 7 - - - - 10 Mostly clear - 27.2 1008.8 0.2
18/07:00am N 1 4 - - - - 10 Mostly clear - 26.4 1008.8 0.2
18/06:30am SSW 2 4 - - - - 10 Mostly clear - 26.4 1008.3 0.2
18/06:00am SSW 4 4 - - - - 10 - - 26.5 1008.1 0.2
18/05:30am SSW 4 4 - - - - 10 - - 26.2 1007.9 0.2
18/05:00am S 4 6 - - - - 10 - - 26.8 1007.6 0.2
18/04:30am SW 2 5 - - - - 10 - - 26.4 1007.3 0.2
18/04:00am CALM 0 0 - - - - 10 - - 26.4 1007.2 0.2
18/03:30am WSW 4 6 - - - - 10 Partly cloudy - 26.6 1007.1 0.2
18/03:00am WNW 5 7 - - - - 10 Cloudy Showers 26.4 1007.3 0.2
18/02:30am NW 7 11 - - - - 10 Partly cloudy - 26.9 1007.6 0.2
18/02:00am NNW 8 10 - - - - 10 Partly cloudy - 27.5 1007.8 0.2
18/01:30am SSE 6 6 - - - - 10 Partly cloudy - 28.7 1007.8 0.2
18/01:00am ENE 7 8 - - - - 10 Partly cloudy - 29.3 1008.2 0.2
18/12:30am ENE 7 9 - - - - 10 Partly cloudy - 29.3 1008.2 0.2
18/12:00am ENE 8 10 - - - - 10 Mostly clear - 29.3 1008.4 0.2
 
Date/Time
EST
Wind Sea
Height
m
Swell Vis
km
Cloud Weather Temp
°C
Press
hPa
Rain since
9am
mm
Dir  Spd
kts
Gust
kts
Height
m
Period
s
Dir
17/11:30pm ENE 7 9 - - - - 10 Partly cloudy - 29.4 1008.7 0.2
17/11:00pm ENE 7 10 - - - - 10 Partly cloudy - 29.4 1008.8 0.2
17/10:30pm ENE 9 12 - - - - 10 Partly cloudy - 29.6 1008.8 0.2
17/10:00pm E 9 11 - - - - 10 Partly cloudy - 29.6 1008.9 0.2
17/09:30pm ENE 7 9 - - - - 10 Partly cloudy - 29.7 1008.7 0.2
17/09:00pm ENE 6 8 - - - - 10 - - 29.5 1008.6 0.2
17/08:30pm ENE 7 10 - - - - 10 Partly cloudy - 29.6 1008.3 0.2
17/08:00pm E 8 11 - - - - 10 Partly cloudy - 29.8 1008.0 0.2
17/07:30pm ENE 10 14 - - - - 10 Partly cloudy - 29.9 1007.8 0.2
17/07:00pm NE 10 13 - - - - 10 Partly cloudy - 30.0 1007.4 0.2
17/06:30pm ENE 10 15 - - - - 10 - - 30.3 1007.0 0.2
17/06:00pm NE 11 14 - - - - 10 - - 30.5 1007.0 0.2

Other formats

Comma delimited format used in spreadsheet applications
http://www.bom.gov.au/fwo/IDQ60701/IDQ60701.94294.axf

JavaScript Object Notation format (JSON) in row-major order
http://www.bom.gov.au/fwo/IDQ60701/IDQ60701.94294.json

Data quality

Most of these data are generated automatically and are frequently updated. Quality checks on data are not normally performed. It is possible for incorrect values to appear. Refer to information at About Latest Weather Observations and please check the disclaimer before using these data.